TimePST,TemperatureF,Dew PointF,Humidity,Sea Level PressureIn,VisibilityMPH,Wind Direction,Wind SpeedMPH,Gust SpeedMPH,PrecipitationIn,Events,Conditions,WindDirDegrees,DateUTC
12:15 AM,55.4,28.4,36,30.19,10.0,Calm,Calm,-,N/A,,Unknown,0,2013-02-03 08:15:00
12:35 AM,53.6,32.0,44,30.18,10.0,Calm,Calm,-,N/A,,Unknown,0,2013-02-03 08:35:00
12:55 AM,55.4,26.6,33,30.18,10.0,Calm,Calm,-,N/A,,Unknown,0,2013-02-03 08:55:00
1:15 AM,53.6,28.4,38,30.17,10.0,Calm,Calm,-,N/A,,Unknown,0,2013-02-03 09:15:00
1:35 AM,53.6,30.2,41,30.17,10.0,NW,5.8,-,N/A,,Unknown,320,2013-02-03 09:35:00
1:55 AM,55.4,24.8,31,30.16,10.0,Calm,Calm,-,N/A,,Unknown,0,2013-02-03 09:55:00
2:15 AM,55.4,26.6,33,30.15,10.0,WNW,6.9,-,N/A,,Unknown,290,2013-02-03 10:15:00
2:35 AM,53.6,26.6,35,30.15,10.0,Calm,Calm,-,N/A,,Unknown,0,2013-02-03 10:35:00
2:55 AM,55.4,26.6,33,30.14,10.0,Calm,Calm,-,N/A,,Unknown,0,2013-02-03 10:55:00
3:15 AM,53.6,28.4,38,30.14,10.0,Calm,Calm,-,N/A,,Unknown,0,2013-02-03 11:15:00
3:35 AM,50.0,32.0,50,30.14,10.0,Calm,Calm,-,N/A,,Unknown,0,2013-02-03 11:35:00
3:55 AM,53.6,28.4,38,30.13,10.0,Calm,Calm,-,N/A,,Unknown,0,2013-02-03 11:55:00
4:15 AM,55.4,23.0,29,30.13,10.0,NW,5.8,-,N/A,,Unknown,310,2013-02-03 12:15:00
4:35 AM,55.4,26.6,33,30.13,10.0,West,8.1,-,N/A,,Unknown,280,2013-02-03 12:35:00
4:55 AM,55.4,28.4,36,30.13,10.0,WNW,5.8,-,N/A,,Unknown,290,2013-02-03 12:55:00
5:15 AM,53.6,28.4,38,30.14,10.0,Calm,Calm,-,N/A,,Unknown,0,2013-02-03 13:15:00
5:35 AM,50.0,32.0,50,30.15,10.0,NW,3.5,-,N/A,,Unknown,310,2013-02-03 13:35:00
5:55 AM,51.8,30.2,44,30.15,10.0,Calm,Calm,-,N/A,,Unknown,0,2013-02-03 13:55:00
6:15 AM,53.6,28.4,38,30.16,10.0,Calm,Calm,-,N/A,,Unknown,0,2013-02-03 14:15:00
6:35 AM,57.2,24.8,29,30.16,10.0,Calm,Calm,-,N/A,,Unknown,0,2013-02-03 14:35:00
6:55 AM,53.6,26.6,35,30.16,10.0,Calm,Calm,-,N/A,,Unknown,0,2013-02-03 14:55:00
7:15 AM,55.4,23.0,29,30.15,10.0,Calm,Calm,-,N/A,,Unknown,0,2013-02-03 15:15:00
7:35 AM,53.6,28.4,38,30.15,10.0,Calm,Calm,-,N/A,,Unknown,0,2013-02-03 15:35:00
7:55 AM,55.4,26.6,33,30.16,10.0,Calm,Calm,-,N/A,,Unknown,0,2013-02-03 15:55:00
8:15 AM,55.4,28.4,36,30.16,10.0,Calm,Calm,-,N/A,,Unknown,0,2013-02-03 16:15:00
8:35 AM,55.4,28.4,36,30.17,10.0,Calm,Calm,-,N/A,,Unknown,0,2013-02-03 16:35:00
8:55 AM,55.4,26.6,33,30.17,10.0,Calm,Calm,-,N/A,,Unknown,0,2013-02-03 16:55:00
9:15 AM,57.2,28.4,33,30.16,10.0,Calm,Calm,-,N/A,,Unknown,0,2013-02-03 17:15:00
9:35 AM,57.2,28.4,33,30.16,10.0,Calm,Calm,-,N/A,,Unknown,0,2013-02-03 17:35:00
9:55 AM,57.2,30.2,36,30.16,10.0,Calm,Calm,-,N/A,,Unknown,0,2013-02-03 17:55:00
10:15 AM,59.0,32.0,36,30.15,10.0,Calm,Calm,-,N/A,,Unknown,0,2013-02-03 18:15:00
10:35 AM,62.6,35.6,37,30.14,10.0,WNW,8.1,-,N/A,,Unknown,300,2013-02-03 18:35:00
10:55 AM,62.6,32.0,32,30.14,10.0,NW,8.1,-,N/A,,Unknown,310,2013-02-03 18:55:00
11:15 AM,62.6,32.0,32,30.13,10.0,NW,8.1,-,N/A,,Unknown,310,2013-02-03 19:15:00
11:35 AM,62.6,32.0,32,30.12,10.0,NE,3.5,-,N/A,,Unknown,40,2013-02-03 19:35:00
11:55 AM,62.6,32.0,32,30.11,10.0,NW,9.2,-,N/A,,Unknown,320,2013-02-03 19:55:00
12:15 PM,64.4,32.0,30,30.09,10.0,NW,6.9,-,N/A,,Unknown,320,2013-02-03 20:15:00
12:35 PM,64.4,30.2,28,30.08,10.0,NW,6.9,-,N/A,,Unknown,320,2013-02-03 20:35:00
12:55 PM,64.4,30.2,28,30.07,10.0,NW,8.1,-,N/A,,Unknown,310,2013-02-03 20:55:00
1:15 PM,66.2,30.2,26,30.05,10.0,NW,10.4,-,N/A,,Unknown,310,2013-02-03 21:15:00
1:35 PM,66.2,28.4,24,30.05,10.0,NNW,6.9,-,N/A,,Unknown,340,2013-02-03 21:35:00
1:55 PM,66.2,28.4,24,30.05,10.0,North,4.6,-,N/A,,Unknown,10,2013-02-03 21:55:00
2:15 PM,66.2,26.6,23,30.04,10.0,Calm,Calm,-,N/A,,Unknown,0,2013-02-03 22:15:00
2:35 PM,66.2,28.4,24,30.04,10.0,NNW,4.6,-,N/A,,Unknown,330,2013-02-03 22:35:00
2:55 PM,66.2,28.4,24,30.04,10.0,WNW,8.1,-,N/A,,Unknown,300,2013-02-03 22:55:00
3:15 PM,66.2,28.4,24,30.04,10.0,NNW,10.4,19.6,N/A,,Unknown,330,2013-02-03 23:15:00
3:35 PM,66.2,28.4,24,30.04,10.0,North,8.1,-,N/A,,Unknown,360,2013-02-03 23:35:00
3:55 PM,66.2,30.2,26,30.04,10.0,NE,6.9,-,N/A,,Unknown,40,2013-02-03 23:55:00
4:15 PM,64.4,30.2,28,30.04,10.0,Calm,Calm,-,N/A,,Unknown,0,2013-02-04 00:15:00
4:35 PM,64.4,30.2,28,30.04,10.0,NE,5.8,-,N/A,,Unknown,40,2013-02-04 00:35:00
4:55 PM,62.6,30.2,30,30.05,10.0,Calm,Calm,-,N/A,,Unknown,0,2013-02-04 00:55:00
5:15 PM,59.0,32.0,36,30.05,10.0,Calm,Calm,-,N/A,,Unknown,0,2013-02-04 01:15:00
5:35 PM,57.2,32.0,38,30.05,10.0,Calm,Calm,-,N/A,,Unknown,0,2013-02-04 01:35:00
5:55 PM,55.4,32.0,41,30.05,10.0,Calm,Calm,-,N/A,,Unknown,0,2013-02-04 01:55:00
6:15 PM,53.6,32.0,44,30.05,10.0,Calm,Calm,-,N/A,,Unknown,0,2013-02-04 02:15:00
6:35 PM,53.6,32.0,44,30.05,10.0,Calm,Calm,-,N/A,,Unknown,0,2013-02-04 02:35:00
6:55 PM,53.6,32.0,44,30.05,10.0,Calm,Calm,-,N/A,,Unknown,0,2013-02-04 02:55:00
7:15 PM,51.8,32.0,47,30.05,10.0,Calm,Calm,-,N/A,,Unknown,0,2013-02-04 03:15:00
7:35 PM,53.6,32.0,44,30.05,10.0,Calm,Calm,-,N/A,,Unknown,0,2013-02-04 03:35:00
7:55 PM,51.8,32.0,47,30.05,10.0,Calm,Calm,-,N/A,,Unknown,0,2013-02-04 03:55:00
8:15 PM,51.8,32.0,47,30.06,10.0,Calm,Calm,-,N/A,,Unknown,0,2013-02-04 04:15:00
8:35 PM,51.8,32.0,47,30.06,10.0,Calm,Calm,-,N/A,,Unknown,0,2013-02-04 04:35:00
8:55 PM,48.2,32.0,54,30.06,10.0,Calm,Calm,-,N/A,,Unknown,0,2013-02-04 04:55:00
9:15 PM,48.2,32.0,54,30.07,10.0,Calm,Calm,-,N/A,,Unknown,0,2013-02-04 05:15:00
9:35 PM,48.2,32.0,54,30.07,10.0,Calm,Calm,-,N/A,,Unknown,0,2013-02-04 05:35:00
9:55 PM,48.2,32.0,54,30.07,10.0,Calm,Calm,-,N/A,,Unknown,0,2013-02-04 05:55:00
10:15 PM,48.2,32.0,54,30.07,10.0,Calm,Calm,-,N/A,,Unknown,0,2013-02-04 06:15:00
10:35 PM,46.4,32.0,57,30.08,10.0,Calm,Calm,-,N/A,,Unknown,0,2013-02-04 06:35:00
10:55 PM,46.4,32.0,57,30.08,10.0,Calm,Calm,-,N/A,,Unknown,0,2013-02-04 06:55:00
11:15 PM,48.2,32.0,54,30.08,10.0,Calm,Calm,-,N/A,,Unknown,0,2013-02-04 07:15:00
11:35 PM,48.2,32.0,54,30.08,10.0,Calm,Calm,-,N/A,,Unknown,0,2013-02-04 07:35:00
11:55 PM,48.2,32.0,54,30.09,10.0,Calm,Calm,-,N/A,,Unknown,0,2013-02-04 07:55:00